GABS/BKO METAR and TAF weather

Enter ICAO airport designator
Station Type Date Time Source
GABS METAR 2022/01/26 07:30 UTC NOAA

GABS 260730Z 01004KT CAVOK 17/M01 Q1014 NOSIG


Station Type Date Time Source
GABS Decoded METAR 2022/01/26 07:30 UTC NOAA

Bamako / Senou, Mali (GABS) 12-32N 007-57W 381M
Jan 26, 2022 - 02:30 AM EST / 2022.01.26 0730 UTC
Wind: from the N (010 degrees) at 5 MPH (4 KT):0
Visibility: greater than 7 mile(s):0
Temperature: 62 F (17 C)
Dew Point: 30 F (-1 C)
Relative Humidity: 29%
Pressure (altimeter): 29.94 in. Hg (1014 hPa)
ob: GABS 260730Z 01004KT CAVOK 17/M01 Q1014 NOSIG
cycle: 7

Station Type Date Time Source
GABS TAF 2022/01/26 06:39 UTC NOAA

TAF TAF GABS 260530Z 2606/2712 05010KT CAVOK

Example: see airport list